sensor_id;sensor_type;location;lat;lon;timestamp;P1;durP1;ratioP1;P2;durP2;ratioP2
7821;SDS011;3956;50.558;9.678;2022-11-20T00:02:10;33.67;;;18.23;;
7821;SDS011;3956;50.558;9.678;2022-11-20T00:04:39;37.17;;;19.07;;
7821;SDS011;3956;50.558;9.678;2022-11-20T00:07:13;37.10;;;19.37;;
7821;SDS011;3956;50.558;9.678;2022-11-20T00:09:50;34.40;;;19.20;;
7821;SDS011;3956;50.558;9.678;2022-11-20T00:12:19;39.03;;;19.17;;
7821;SDS011;3956;50.558;9.678;2022-11-20T00:14:49;37.23;;;18.27;;
7821;SDS011;3956;50.558;9.678;2022-11-20T00:17:19;37.00;;;18.97;;
7821;SDS011;3956;50.558;9.678;2022-11-20T00:19:47;37.97;;;18.67;;
7821;SDS011;3956;50.558;9.678;2022-11-20T00:22:15;38.77;;;18.43;;
7821;SDS011;3956;50.558;9.678;2022-11-20T00:24:44;36.57;;;19.60;;
7821;SDS011;3956;50.558;9.678;2022-11-20T00:27:44;35.57;;;18.13;;
7821;SDS011;3956;50.558;9.678;2022-11-20T00:30:37;36.57;;;18.23;;
7821;SDS011;3956;50.558;9.678;2022-11-20T00:33:07;37.00;;;18.50;;
7821;SDS011;3956;50.558;9.678;2022-11-20T00:35:35;38.07;;;19.37;;
7821;SDS011;3956;50.558;9.678;2022-11-20T00:38:03;36.93;;;18.63;;
7821;SDS011;3956;50.558;9.678;2022-11-20T00:40:32;37.60;;;19.30;;
7821;SDS011;3956;50.558;9.678;2022-11-20T00:43:01;38.60;;;18.93;;
7821;SDS011;3956;50.558;9.678;2022-11-20T00:45:32;37.73;;;18.53;;
7821;SDS011;3956;50.558;9.678;2022-11-20T00:48:06;38.63;;;18.23;;
7821;SDS011;3956;50.558;9.678;2022-11-20T00:50:43;36.00;;;19.63;;
7821;SDS011;3956;50.558;9.678;2022-11-20T00:53:13;36.97;;;20.03;;
7821;SDS011;3956;50.558;9.678;2022-11-20T00:55:43;34.67;;;18.10;;
7821;SDS011;3956;50.558;9.678;2022-11-20T00:58:21;37.17;;;17.90;;
7821;SDS011;3956;50.558;9.678;2022-11-20T01:00:50;37.50;;;19.80;;
7821;SDS011;3956;50.558;9.678;2022-11-20T01:03:19;36.33;;;18.30;;
7821;SDS011;3956;50.558;9.678;2022-11-20T01:05:52;35.70;;;19.23;;
7821;SDS011;3956;50.558;9.678;2022-11-20T01:08:20;35.23;;;19.47;;
7821;SDS011;3956;50.558;9.678;2022-11-20T01:10:49;35.63;;;18.70;;
7821;SDS011;3956;50.558;9.678;2022-11-20T01:13:17;34.57;;;18.03;;
7821;SDS011;3956;50.558;9.678;2022-11-20T01:16:03;34.27;;;18.20;;
7821;SDS011;3956;50.558;9.678;2022-11-20T01:18:36;34.00;;;18.17;;
7821;SDS011;3956;50.558;9.678;2022-11-20T01:21:09;31.93;;;17.33;;
7821;SDS011;3956;50.558;9.678;2022-11-20T01:23:40;35.73;;;18.63;;
7821;SDS011;3956;50.558;9.678;2022-11-20T01:26:10;35.17;;;17.47;;
7821;SDS011;3956;50.558;9.678;2022-11-20T01:28:41;36.23;;;17.37;;
7821;SDS011;3956;50.558;9.678;2022-11-20T01:31:11;37.17;;;18.17;;
7821;SDS011;3956;50.558;9.678;2022-11-20T01:33:41;34.17;;;17.77;;
7821;SDS011;3956;50.558;9.678;2022-11-20T01:36:11;32.23;;;18.40;;
7821;SDS011;3956;50.558;9.678;2022-11-20T01:38:43;35.70;;;18.50;;
7821;SDS011;3956;50.558;9.678;2022-11-20T01:41:13;32.37;;;17.97;;
7821;SDS011;3956;50.558;9.678;2022-11-20T01:44:03;32.33;;;17.53;;
7821;SDS011;3956;50.558;9.678;2022-11-20T01:46:31;30.37;;;16.77;;
7821;SDS011;3956;50.558;9.678;2022-11-20T01:49:02;33.00;;;17.43;;
7821;SDS011;3956;50.558;9.678;2022-11-20T01:51:42;30.90;;;16.50;;
7821;SDS011;3956;50.558;9.678;2022-11-20T01:54:16;31.67;;;18.07;;
7821;SDS011;3956;50.558;9.678;2022-11-20T01:56:46;33.53;;;18.10;;
7821;SDS011;3956;50.558;9.678;2022-11-20T01:59:18;31.30;;;17.23;;
7821;SDS011;3956;50.558;9.678;2022-11-20T02:01:51;32.17;;;18.33;;
7821;SDS011;3956;50.558;9.678;2022-11-20T02:04:22;31.27;;;17.73;;
7821;SDS011;3956;50.558;9.678;2022-11-20T02:06:53;32.13;;;17.83;;
7821;SDS011;3956;50.558;9.678;2022-11-20T02:09:28;30.47;;;16.17;;
7821;SDS011;3956;50.558;9.678;2022-11-20T02:11:56;29.70;;;16.50;;
7821;SDS011;3956;50.558;9.678;2022-11-20T02:14:27;31.57;;;17.40;;
7821;SDS011;3956;50.558;9.678;2022-11-20T02:16:56;31.87;;;16.00;;
7821;SDS011;3956;50.558;9.678;2022-11-20T02:19:27;31.23;;;17.23;;
7821;SDS011;3956;50.558;9.678;2022-11-20T02:21:59;29.03;;;16.40;;
7821;SDS011;3956;50.558;9.678;2022-11-20T02:24:35;31.57;;;17.00;;
7821;SDS011;3956;50.558;9.678;2022-11-20T02:27:04;30.90;;;16.83;;
7821;SDS011;3956;50.558;9.678;2022-11-20T02:29:38;33.13;;;17.27;;
7821;SDS011;3956;50.558;9.678;2022-11-20T02:32:17;32.10;;;18.33;;
7821;SDS011;3956;50.558;9.678;2022-11-20T02:34:46;32.77;;;17.27;;
7821;SDS011;3956;50.558;9.678;2022-11-20T02:37:14;34.67;;;18.50;;
7821;SDS011;3956;50.558;9.678;2022-11-20T02:39:45;33.67;;;18.07;;
7821;SDS011;3956;50.558;9.678;2022-11-20T02:42:18;34.43;;;18.63;;
7821;SDS011;3956;50.558;9.678;2022-11-20T02:44:46;33.33;;;17.67;;
7821;SDS011;3956;50.558;9.678;2022-11-20T02:47:14;34.03;;;18.10;;
7821;SDS011;3956;50.558;9.678;2022-11-20T02:49:43;33.63;;;18.00;;
7821;SDS011;3956;50.558;9.678;2022-11-20T02:52:11;34.20;;;17.60;;
7821;SDS011;3956;50.558;9.678;2022-11-20T02:54:39;32.47;;;17.73;;
7821;SDS011;3956;50.558;9.678;2022-11-20T02:57:10;34.37;;;17.97;;
7821;SDS011;3956;50.558;9.678;2022-11-20T02:59:40;33.57;;;18.13;;
7821;SDS011;3956;50.558;9.678;2022-11-20T03:02:09;33.47;;;18.33;;
7821;SDS011;3956;50.558;9.678;2022-11-20T03:04:38;33.97;;;17.87;;
7821;SDS011;3956;50.558;9.678;2022-11-20T03:07:07;32.97;;;17.30;;
7821;SDS011;3956;50.558;9.678;2022-11-20T03:09:36;33.90;;;16.87;;
7821;SDS011;3956;50.558;9.678;2022-11-20T03:12:04;34.37;;;17.47;;
7821;SDS011;3956;50.558;9.678;2022-11-20T03:14:36;30.03;;;17.00;;
7821;SDS011;3956;50.558;9.678;2022-11-20T03:17:05;35.20;;;18.10;;
7821;SDS011;3956;50.558;9.678;2022-11-20T03:19:35;35.47;;;18.23;;
7821;SDS011;3956;50.558;9.678;2022-11-20T03:22:03;33.83;;;18.37;;
7821;SDS011;3956;50.558;9.678;2022-11-20T03:24:43;31.03;;;17.23;;
7821;SDS011;3956;50.558;9.678;2022-11-20T03:27:16;32.80;;;17.67;;
7821;SDS011;3956;50.558;9.678;2022-11-20T03:29:46;33.40;;;18.13;;
7821;SDS011;3956;50.558;9.678;2022-11-20T03:32:14;31.50;;;17.63;;
7821;SDS011;3956;50.558;9.678;2022-11-20T03:34:43;34.33;;;18.60;;
7821;SDS011;3956;50.558;9.678;2022-11-20T03:37:12;36.67;;;18.50;;
7821;SDS011;3956;50.558;9.678;2022-11-20T03:39:40;30.13;;;16.80;;
7821;SDS011;3956;50.558;9.678;2022-11-20T03:42:08;31.97;;;17.43;;
7821;SDS011;3956;50.558;9.678;2022-11-20T03:45:02;30.83;;;17.40;;
7821;SDS011;3956;50.558;9.678;2022-11-20T03:47:35;40.23;;;18.43;;
7821;SDS011;3956;50.558;9.678;2022-11-20T03:50:04;33.83;;;19.27;;
7821;SDS011;3956;50.558;9.678;2022-11-20T03:52:32;36.63;;;18.87;;
7821;SDS011;3956;50.558;9.678;2022-11-20T03:55:00;35.97;;;18.53;;
7821;SDS011;3956;50.558;9.678;2022-11-20T03:57:29;34.80;;;18.43;;
7821;SDS011;3956;50.558;9.678;2022-11-20T03:59:59;34.27;;;18.97;;
7821;SDS011;3956;50.558;9.678;2022-11-20T04:02:44;33.13;;;18.20;;
7821;SDS011;3956;50.558;9.678;2022-11-20T04:05:13;34.73;;;18.30;;
7821;SDS011;3956;50.558;9.678;2022-11-20T04:07:42;34.77;;;17.87;;
7821;SDS011;3956;50.558;9.678;2022-11-20T04:10:12;32.57;;;18.60;;
7821;SDS011;3956;50.558;9.678;2022-11-20T04:12:41;33.77;;;17.73;;
7821;SDS011;3956;50.558;9.678;2022-11-20T04:15:11;32.47;;;17.73;;
7821;SDS011;3956;50.558;9.678;2022-11-20T04:17:39;32.47;;;17.87;;
7821;SDS011;3956;50.558;9.678;2022-11-20T04:20:11;29.10;;;15.67;;
7821;SDS011;3956;50.558;9.678;2022-11-20T04:22:39;32.10;;;17.57;;
7821;SDS011;3956;50.558;9.678;2022-11-20T04:25:08;34.53;;;17.73;;
7821;SDS011;3956;50.558;9.678;2022-11-20T04:27:36;30.13;;;16.17;;
7821;SDS011;3956;50.558;9.678;2022-11-20T04:30:06;30.07;;;16.83;;
7821;SDS011;3956;50.558;9.678;2022-11-20T04:32:35;31.97;;;17.70;;
7821;SDS011;3956;50.558;9.678;2022-11-20T04:35:04;30.83;;;17.20;;
7821;SDS011;3956;50.558;9.678;2022-11-20T04:37:36;30.40;;;16.93;;
7821;SDS011;3956;50.558;9.678;2022-11-20T04:40:08;33.17;;;16.80;;
7821;SDS011;3956;50.558;9.678;2022-11-20T04:42:43;36.07;;;19.07;;
7821;SDS011;3956;50.558;9.678;2022-11-20T04:45:11;33.00;;;16.73;;
7821;SDS011;3956;50.558;9.678;2022-11-20T04:47:40;32.27;;;17.90;;
7821;SDS011;3956;50.558;9.678;2022-11-20T04:50:11;34.73;;;18.73;;
7821;SDS011;3956;50.558;9.678;2022-11-20T04:52:44;36.70;;;18.53;;
7821;SDS011;3956;50.558;9.678;2022-11-20T04:55:12;34.80;;;19.73;;
7821;SDS011;3956;50.558;9.678;2022-11-20T04:57:42;33.27;;;18.43;;
7821;SDS011;3956;50.558;9.678;2022-11-20T05:00:18;29.13;;;17.20;;
7821;SDS011;3956;50.558;9.678;2022-11-20T05:02:47;30.40;;;17.77;;
7821;SDS011;3956;50.558;9.678;2022-11-20T05:05:16;33.50;;;17.40;;
7821;SDS011;3956;50.558;9.678;2022-11-20T05:07:46;29.53;;;17.23;;
7821;SDS011;3956;50.558;9.678;2022-11-20T05:10:15;28.90;;;15.87;;
7821;SDS011;3956;50.558;9.678;2022-11-20T05:12:44;33.03;;;17.87;;
7821;SDS011;3956;50.558;9.678;2022-11-20T05:15:17;31.13;;;17.83;;
7821;SDS011;3956;50.558;9.678;2022-11-20T05:17:49;31.43;;;17.60;;
7821;SDS011;3956;50.558;9.678;2022-11-20T05:20:24;33.83;;;18.40;;
7821;SDS011;3956;50.558;9.678;2022-11-20T05:23:05;31.83;;;17.13;;
7821;SDS011;3956;50.558;9.678;2022-11-20T05:25:33;31.03;;;17.63;;
7821;SDS011;3956;50.558;9.678;2022-11-20T05:28:01;31.10;;;17.13;;
7821;SDS011;3956;50.558;9.678;2022-11-20T05:30:31;32.00;;;17.23;;
7821;SDS011;3956;50.558;9.678;2022-11-20T05:33:02;31.03;;;17.53;;
7821;SDS011;3956;50.558;9.678;2022-11-20T05:35:31;31.17;;;17.53;;
7821;SDS011;3956;50.558;9.678;2022-11-20T05:37:59;31.77;;;18.20;;
7821;SDS011;3956;50.558;9.678;2022-11-20T05:40:29;28.57;;;16.57;;
7821;SDS011;3956;50.558;9.678;2022-11-20T05:43:09;29.57;;;16.63;;
7821;SDS011;3956;50.558;9.678;2022-11-20T05:46:07;29.47;;;16.70;;
7821;SDS011;3956;50.558;9.678;2022-11-20T05:48:39;27.60;;;15.97;;
7821;SDS011;3956;50.558;9.678;2022-11-20T05:51:27;25.93;;;15.70;;
7821;SDS011;3956;50.558;9.678;2022-11-20T05:54:10;29.30;;;16.70;;
7821;SDS011;3956;50.558;9.678;2022-11-20T05:56:58;30.97;;;16.77;;
7821;SDS011;3956;50.558;9.678;2022-11-20T05:59:30;27.83;;;16.67;;
7821;SDS011;3956;50.558;9.678;2022-11-20T06:02:00;31.73;;;17.13;;
7821;SDS011;3956;50.558;9.678;2022-11-20T06:04:29;30.23;;;17.63;;
7821;SDS011;3956;50.558;9.678;2022-11-20T06:06:59;27.03;;;15.50;;
7821;SDS011;3956;50.558;9.678;2022-11-20T06:09:28;28.87;;;16.47;;
7821;SDS011;3956;50.558;9.678;2022-11-20T06:12:10;29.87;;;16.47;;
7821;SDS011;3956;50.558;9.678;2022-11-20T06:14:39;31.17;;;17.03;;
7821;SDS011;3956;50.558;9.678;2022-11-20T06:17:09;29.07;;;16.90;;
7821;SDS011;3956;50.558;9.678;2022-11-20T06:19:37;27.60;;;13.70;;
7821;SDS011;3956;50.558;9.678;2022-11-20T06:22:09;30.37;;;15.07;;
7821;SDS011;3956;50.558;9.678;2022-11-20T06:24:39;26.90;;;16.03;;
7821;SDS011;3956;50.558;9.678;2022-11-20T06:27:12;26.37;;;15.20;;
7821;SDS011;3956;50.558;9.678;2022-11-20T06:29:42;28.73;;;17.03;;
7821;SDS011;3956;50.558;9.678;2022-11-20T06:32:12;27.27;;;15.47;;
7821;SDS011;3956;50.558;9.678;2022-11-20T06:34:42;24.33;;;15.77;;
7821;SDS011;3956;50.558;9.678;2022-11-20T06:37:13;28.13;;;15.83;;
7821;SDS011;3956;50.558;9.678;2022-11-20T06:39:46;28.97;;;16.77;;
7821;SDS011;3956;50.558;9.678;2022-11-20T06:42:16;26.77;;;15.40;;
7821;SDS011;3956;50.558;9.678;2022-11-20T06:44:46;26.80;;;16.03;;
7821;SDS011;3956;50.558;9.678;2022-11-20T06:47:14;28.93;;;16.33;;
7821;SDS011;3956;50.558;9.678;2022-11-20T06:49:44;27.03;;;15.50;;
7821;SDS011;3956;50.558;9.678;2022-11-20T06:52:13;27.37;;;15.30;;
7821;SDS011;3956;50.558;9.678;2022-11-20T06:54:47;25.43;;;16.10;;
7821;SDS011;3956;50.558;9.678;2022-11-20T06:57:21;25.87;;;15.60;;
7821;SDS011;3956;50.558;9.678;2022-11-20T06:59:50;28.23;;;16.77;;
7821;SDS011;3956;50.558;9.678;2022-11-20T07:02:21;27.40;;;16.70;;
7821;SDS011;3956;50.558;9.678;2022-11-20T07:04:49;30.27;;;17.03;;
7821;SDS011;3956;50.558;9.678;2022-11-20T07:07:21;27.30;;;15.83;;
7821;SDS011;3956;50.558;9.678;2022-11-20T07:09:50;26.77;;;15.80;;
7821;SDS011;3956;50.558;9.678;2022-11-20T07:12:24;27.83;;;16.23;;
7821;SDS011;3956;50.558;9.678;2022-11-20T07:14:55;31.90;;;17.67;;
7821;SDS011;3956;50.558;9.678;2022-11-20T07:17:25;33.43;;;17.50;;
7821;SDS011;3956;50.558;9.678;2022-11-20T07:19:57;29.03;;;17.03;;
7821;SDS011;3956;50.558;9.678;2022-11-20T07:22:25;27.00;;;16.53;;
7821;SDS011;3956;50.558;9.678;2022-11-20T07:24:53;27.50;;;16.17;;
7821;SDS011;3956;50.558;9.678;2022-11-20T07:27:22;31.80;;;17.77;;
7821;SDS011;3956;50.558;9.678;2022-11-20T07:30:06;30.57;;;17.83;;
7821;SDS011;3956;50.558;9.678;2022-11-20T07:32:36;29.77;;;17.73;;
7821;SDS011;3956;50.558;9.678;2022-11-20T07:35:05;30.63;;;16.90;;
7821;SDS011;3956;50.558;9.678;2022-11-20T07:37:33;33.07;;;18.47;;
7821;SDS011;3956;50.558;9.678;2022-11-20T07:40:05;32.87;;;17.53;;
7821;SDS011;3956;50.558;9.678;2022-11-20T07:42:35;32.40;;;18.50;;
7821;SDS011;3956;50.558;9.678;2022-11-20T07:45:03;32.97;;;19.17;;
7821;SDS011;3956;50.558;9.678;2022-11-20T07:47:35;32.00;;;18.47;;
7821;SDS011;3956;50.558;9.678;2022-11-20T07:50:04;31.60;;;18.37;;
7821;SDS011;3956;50.558;9.678;2022-11-20T07:52:34;29.73;;;17.30;;
7821;SDS011;3956;50.558;9.678;2022-11-20T07:55:09;29.70;;;17.37;;
7821;SDS011;3956;50.558;9.678;2022-11-20T07:57:38;30.50;;;17.83;;
7821;SDS011;3956;50.558;9.678;2022-11-20T08:00:08;33.43;;;17.90;;
7821;SDS011;3956;50.558;9.678;2022-11-20T08:02:40;32.00;;;18.27;;
7821;SDS011;3956;50.558;9.678;2022-11-20T08:05:10;31.10;;;17.90;;
7821;SDS011;3956;50.558;9.678;2022-11-20T08:07:43;31.50;;;18.97;;
7821;SDS011;3956;50.558;9.678;2022-11-20T08:10:13;30.37;;;17.63;;
7821;SDS011;3956;50.558;9.678;2022-11-20T08:12:46;30.40;;;17.47;;
7821;SDS011;3956;50.558;9.678;2022-11-20T08:15:40;35.93;;;18.63;;
7821;SDS011;3956;50.558;9.678;2022-11-20T08:18:09;31.57;;;18.33;;
7821;SDS011;3956;50.558;9.678;2022-11-20T08:23:30;34.40;;;18.83;;
7821;SDS011;3956;50.558;9.678;2022-11-20T08:26:14;31.10;;;17.47;;
7821;SDS011;3956;50.558;9.678;2022-11-20T08:28:52;30.40;;;17.53;;
7821;SDS011;3956;50.558;9.678;2022-11-20T08:31:44;31.93;;;18.53;;
7821;SDS011;3956;50.558;9.678;2022-11-20T08:34:50;35.33;;;18.77;;
7821;SDS011;3956;50.558;9.678;2022-11-20T08:37:49;48.67;;;23.87;;
7821;SDS011;3956;50.558;9.678;2022-11-20T08:40:21;35.33;;;19.77;;
7821;SDS011;3956;50.558;9.678;2022-11-20T08:43:47;40.67;;;18.97;;
7821;SDS011;3956;50.558;9.678;2022-11-20T08:46:21;34.77;;;19.43;;
7821;SDS011;3956;50.558;9.678;2022-11-20T08:49:01;37.67;;;19.87;;
7821;SDS011;3956;50.558;9.678;2022-11-20T08:51:32;37.40;;;20.00;;
7821;SDS011;3956;50.558;9.678;2022-11-20T08:54:08;39.43;;;19.97;;
7821;SDS011;3956;50.558;9.678;2022-11-20T08:57:01;35.33;;;19.27;;
7821;SDS011;3956;50.558;9.678;2022-11-20T08:59:32;35.63;;;19.93;;
7821;SDS011;3956;50.558;9.678;2022-11-20T09:02:24;37.13;;;19.00;;
7821;SDS011;3956;50.558;9.678;2022-11-20T09:04:57;38.87;;;19.67;;
7821;SDS011;3956;50.558;9.678;2022-11-20T09:07:26;35.73;;;19.47;;
7821;SDS011;3956;50.558;9.678;2022-11-20T09:10:00;37.27;;;20.17;;
7821;SDS011;3956;50.558;9.678;2022-11-20T09:12:51;32.73;;;19.23;;
7821;SDS011;3956;50.558;9.678;2022-11-20T09:15:22;32.00;;;18.60;;
7821;SDS011;3956;50.558;9.678;2022-11-20T09:17:55;39.70;;;19.53;;
7821;SDS011;3956;50.558;9.678;2022-11-20T09:20:57;37.27;;;19.50;;
7821;SDS011;3956;50.558;9.678;2022-11-20T09:23:36;35.50;;;19.10;;
7821;SDS011;3956;50.558;9.678;2022-11-20T09:26:09;35.57;;;18.83;;
7821;SDS011;3956;50.558;9.678;2022-11-20T09:28:39;31.90;;;18.73;;
7821;SDS011;3956;50.558;9.678;2022-11-20T09:31:13;36.73;;;19.23;;
7821;SDS011;3956;50.558;9.678;2022-11-20T09:33:53;33.93;;;17.20;;
7821;SDS011;3956;50.558;9.678;2022-11-20T09:36:43;33.23;;;18.57;;
7821;SDS011;3956;50.558;9.678;2022-11-20T09:39:11;35.77;;;18.47;;
7821;SDS011;3956;50.558;9.678;2022-11-20T09:41:51;32.53;;;18.63;;
7821;SDS011;3956;50.558;9.678;2022-11-20T09:44:57;34.20;;;18.73;;
7821;SDS011;3956;50.558;9.678;2022-11-20T09:47:52;32.97;;;19.13;;
7821;SDS011;3956;50.558;9.678;2022-11-20T09:50:43;31.50;;;17.53;;
7821;SDS011;3956;50.558;9.678;2022-11-20T09:56:58;31.73;;;17.70;;
7821;SDS011;3956;50.558;9.678;2022-11-20T09:59:51;33.10;;;17.63;;
7821;SDS011;3956;50.558;9.678;2022-11-20T10:02:27;37.20;;;19.70;;
7821;SDS011;3956;50.558;9.678;2022-11-20T10:05:09;36.10;;;21.27;;
7821;SDS011;3956;50.558;9.678;2022-11-20T10:07:44;30.77;;;18.57;;
7821;SDS011;3956;50.558;9.678;2022-11-20T10:10:26;31.70;;;17.87;;
7821;SDS011;3956;50.558;9.678;2022-11-20T10:13:04;30.40;;;17.03;;
7821;SDS011;3956;50.558;9.678;2022-11-20T10:16:02;28.53;;;17.20;;
7821;SDS011;3956;50.558;9.678;2022-11-20T10:18:43;30.07;;;17.23;;
7821;SDS011;3956;50.558;9.678;2022-11-20T10:21:42;129.93;;;66.60;;
7821;SDS011;3956;50.558;9.678;2022-11-20T10:31:02;29.23;;;15.67;;
7821;SDS011;3956;50.558;9.678;2022-11-20T10:33:38;27.07;;;16.30;;
7821;SDS011;3956;50.558;9.678;2022-11-20T10:36:30;23.33;;;14.60;;
7821;SDS011;3956;50.558;9.678;2022-11-20T10:39:05;27.47;;;14.70;;
7821;SDS011;3956;50.558;9.678;2022-11-20T10:41:56;22.83;;;12.90;;
7821;SDS011;3956;50.558;9.678;2022-11-20T10:44:52;19.90;;;12.27;;
7821;SDS011;3956;50.558;9.678;2022-11-20T10:47:35;21.57;;;13.13;;
7821;SDS011;3956;50.558;9.678;2022-11-20T10:50:04;20.90;;;12.67;;
7821;SDS011;3956;50.558;9.678;2022-11-20T10:52:49;19.40;;;11.93;;
7821;SDS011;3956;50.558;9.678;2022-11-20T10:55:27;20.27;;;12.70;;
7821;SDS011;3956;50.558;9.678;2022-11-20T10:58:12;18.47;;;11.50;;
7821;SDS011;3956;50.558;9.678;2022-11-20T11:00:46;20.60;;;12.50;;
7821;SDS011;3956;50.558;9.678;2022-11-20T11:03:20;22.90;;;13.40;;
7821;SDS011;3956;50.558;9.678;2022-11-20T11:05:56;22.17;;;13.10;;
7821;SDS011;3956;50.558;9.678;2022-11-20T11:08:35;21.73;;;14.03;;
7821;SDS011;3956;50.558;9.678;2022-11-20T11:11:13;32.20;;;19.60;;
7821;SDS011;3956;50.558;9.678;2022-11-20T11:14:08;40.17;;;23.10;;
7821;SDS011;3956;50.558;9.678;2022-11-20T11:17:17;28.07;;;15.07;;
7821;SDS011;3956;50.558;9.678;2022-11-20T11:20:11;30.70;;;16.87;;
7821;SDS011;3956;50.558;9.678;2022-11-20T11:23:00;26.50;;;16.00;;
7821;SDS011;3956;50.558;9.678;2022-11-20T11:25:30;24.70;;;14.97;;
7821;SDS011;3956;50.558;9.678;2022-11-20T11:28:19;22.90;;;14.33;;
7821;SDS011;3956;50.558;9.678;2022-11-20T11:31:08;28.37;;;15.60;;
7821;SDS011;3956;50.558;9.678;2022-11-20T11:33:39;24.47;;;14.53;;
7821;SDS011;3956;50.558;9.678;2022-11-20T11:36:17;24.57;;;14.80;;
7821;SDS011;3956;50.558;9.678;2022-11-20T11:38:52;22.87;;;14.53;;
7821;SDS011;3956;50.558;9.678;2022-11-20T11:41:25;21.03;;;12.30;;
7821;SDS011;3956;50.558;9.678;2022-11-20T11:44:12;22.70;;;13.43;;
7821;SDS011;3956;50.558;9.678;2022-11-20T11:47:18;20.13;;;11.40;;
7821;SDS011;3956;50.558;9.678;2022-11-20T11:50:00;20.77;;;11.27;;
7821;SDS011;3956;50.558;9.678;2022-11-20T11:52:34;17.40;;;9.77;;
7821;SDS011;3956;50.558;9.678;2022-11-20T11:55:12;16.07;;;9.93;;
7821;SDS011;3956;50.558;9.678;2022-11-20T11:57:49;21.23;;;13.00;;
7821;SDS011;3956;50.558;9.678;2022-11-20T12:00:28;21.87;;;12.13;;
7821;SDS011;3956;50.558;9.678;2022-11-20T12:03:04;18.40;;;10.87;;
7821;SDS011;3956;50.558;9.678;2022-11-20T12:05:46;16.93;;;9.67;;
7821;SDS011;3956;50.558;9.678;2022-11-20T12:08:50;15.10;;;9.17;;
7821;SDS011;3956;50.558;9.678;2022-11-20T12:11:26;13.63;;;9.10;;
7821;SDS011;3956;50.558;9.678;2022-11-20T12:14:29;13.40;;;8.90;;
7821;SDS011;3956;50.558;9.678;2022-11-20T12:17:17;14.67;;;9.00;;
7821;SDS011;3956;50.558;9.678;2022-11-20T12:19:45;15.03;;;8.60;;
7821;SDS011;3956;50.558;9.678;2022-11-20T12:22:17;15.07;;;9.30;;
7821;SDS011;3956;50.558;9.678;2022-11-20T12:25:00;15.47;;;10.40;;
7821;SDS011;3956;50.558;9.678;2022-11-20T12:27:39;14.43;;;9.63;;
7821;SDS011;3956;50.558;9.678;2022-11-20T12:30:48;13.90;;;9.37;;
7821;SDS011;3956;50.558;9.678;2022-11-20T12:33:40;14.17;;;8.80;;
7821;SDS011;3956;50.558;9.678;2022-11-20T12:36:19;18.47;;;12.63;;
7821;SDS011;3956;50.558;9.678;2022-11-20T12:39:15;15.97;;;10.20;;
7821;SDS011;3956;50.558;9.678;2022-11-20T12:42:48;16.50;;;10.13;;
7821;SDS011;3956;50.558;9.678;2022-11-20T12:48:48;15.63;;;9.33;;
7821;SDS011;3956;50.558;9.678;2022-11-20T12:51:41;15.50;;;9.77;;
7821;SDS011;3956;50.558;9.678;2022-11-20T12:54:46;19.50;;;12.37;;
7821;SDS011;3956;50.558;9.678;2022-11-20T12:57:34;15.10;;;8.80;;
7821;SDS011;3956;50.558;9.678;2022-11-20T13:04:22;15.03;;;9.67;;
7821;SDS011;3956;50.558;9.678;2022-11-20T13:07:22;14.33;;;8.37;;
7821;SDS011;3956;50.558;9.678;2022-11-20T13:10:04;15.37;;;8.90;;
7821;SDS011;3956;50.558;9.678;2022-11-20T13:12:46;14.67;;;9.50;;
7821;SDS011;3956;50.558;9.678;2022-11-20T13:15:48;13.63;;;9.10;;
7821;SDS011;3956;50.558;9.678;2022-11-20T13:21:55;11.83;;;8.40;;
7821;SDS011;3956;50.558;9.678;2022-11-20T13:24:28;13.37;;;8.73;;
7821;SDS011;3956;50.558;9.678;2022-11-20T13:27:04;15.57;;;9.90;;
7821;SDS011;3956;50.558;9.678;2022-11-20T13:30:00;18.07;;;9.70;;
7821;SDS011;3956;50.558;9.678;2022-11-20T13:33:22;14.60;;;9.90;;
7821;SDS011;3956;50.558;9.678;2022-11-20T13:36:34;14.30;;;8.27;;
7821;SDS011;3956;50.558;9.678;2022-11-20T13:39:04;13.87;;;8.43;;
7821;SDS011;3956;50.558;9.678;2022-11-20T13:41:35;13.87;;;10.03;;
7821;SDS011;3956;50.558;9.678;2022-11-20T13:44:12;14.53;;;8.90;;
7821;SDS011;3956;50.558;9.678;2022-11-20T13:49:33;12.90;;;7.63;;
7821;SDS011;3956;50.558;9.678;2022-11-20T13:55:26;10.93;;;7.77;;
7821;SDS011;3956;50.558;9.678;2022-11-20T14:01:00;11.90;;;8.07;;
7821;SDS011;3956;50.558;9.678;2022-11-20T14:03:40;12.80;;;8.43;;
7821;SDS011;3956;50.558;9.678;2022-11-20T14:06:32;13.73;;;8.23;;
7821;SDS011;3956;50.558;9.678;2022-11-20T14:09:24;17.30;;;9.50;;
7821;SDS011;3956;50.558;9.678;2022-11-20T14:12:14;13.00;;;8.67;;
7821;SDS011;3956;50.558;9.678;2022-11-20T14:14:54;13.27;;;9.07;;
7821;SDS011;3956;50.558;9.678;2022-11-20T14:17:24;14.20;;;8.50;;
7821;SDS011;3956;50.558;9.678;2022-11-20T14:19:58;15.67;;;8.83;;
7821;SDS011;3956;50.558;9.678;2022-11-20T14:22:31;12.67;;;8.37;;
7821;SDS011;3956;50.558;9.678;2022-11-20T14:25:20;14.13;;;9.50;;
7821;SDS011;3956;50.558;9.678;2022-11-20T14:30:28;14.30;;;9.73;;
7821;SDS011;3956;50.558;9.678;2022-11-20T14:33:45;14.30;;;9.53;;
7821;SDS011;3956;50.558;9.678;2022-11-20T14:36:28;14.60;;;8.93;;
7821;SDS011;3956;50.558;9.678;2022-11-20T14:39:20;12.37;;;8.37;;
7821;SDS011;3956;50.558;9.678;2022-11-20T14:41:52;14.60;;;9.70;;
7821;SDS011;3956;50.558;9.678;2022-11-20T14:44:23;15.17;;;9.70;;
7821;SDS011;3956;50.558;9.678;2022-11-20T14:46:55;14.60;;;9.10;;
7821;SDS011;3956;50.558;9.678;2022-11-20T14:49:43;18.27;;;11.00;;
7821;SDS011;3956;50.558;9.678;2022-11-20T14:52:22;16.77;;;11.57;;
7821;SDS011;3956;50.558;9.678;2022-11-20T14:54:52;14.07;;;9.80;;
7821;SDS011;3956;50.558;9.678;2022-11-20T14:57:34;16.10;;;9.67;;
7821;SDS011;3956;50.558;9.678;2022-11-20T15:00:41;15.07;;;9.70;;
7821;SDS011;3956;50.558;9.678;2022-11-20T15:03:41;17.63;;;11.47;;
7821;SDS011;3956;50.558;9.678;2022-11-20T15:06:25;16.83;;;9.50;;
7821;SDS011;3956;50.558;9.678;2022-11-20T15:09:13;14.33;;;9.50;;
7821;SDS011;3956;50.558;9.678;2022-11-20T15:12:16;17.07;;;10.50;;
7821;SDS011;3956;50.558;9.678;2022-11-20T15:15:39;15.67;;;10.20;;
7821;SDS011;3956;50.558;9.678;2022-11-20T15:18:50;15.23;;;9.77;;
7821;SDS011;3956;50.558;9.678;2022-11-20T15:21:35;17.83;;;11.50;;
7821;SDS011;3956;50.558;9.678;2022-11-20T15:24:24;19.03;;;11.50;;
7821;SDS011;3956;50.558;9.678;2022-11-20T15:27:03;14.90;;;9.23;;
7821;SDS011;3956;50.558;9.678;2022-11-20T15:29:41;18.10;;;10.37;;
7821;SDS011;3956;50.558;9.678;2022-11-20T15:32:29;15.83;;;10.97;;
7821;SDS011;3956;50.558;9.678;2022-11-20T15:35:06;17.03;;;10.67;;
7821;SDS011;3956;50.558;9.678;2022-11-20T15:37:50;16.07;;;10.80;;
7821;SDS011;3956;50.558;9.678;2022-11-20T15:40:42;15.90;;;10.17;;
7821;SDS011;3956;50.558;9.678;2022-11-20T15:43:10;17.50;;;10.67;;
7821;SDS011;3956;50.558;9.678;2022-11-20T15:45:40;18.77;;;11.03;;
7821;SDS011;3956;50.558;9.678;2022-11-20T15:48:17;20.20;;;11.77;;
7821;SDS011;3956;50.558;9.678;2022-11-20T15:50:58;20.33;;;13.00;;
7821;SDS011;3956;50.558;9.678;2022-11-20T15:53:37;19.97;;;12.77;;
7821;SDS011;3956;50.558;9.678;2022-11-20T15:56:31;22.77;;;13.87;;
7821;SDS011;3956;50.558;9.678;2022-11-20T15:59:00;24.13;;;14.20;;
7821;SDS011;3956;50.558;9.678;2022-11-20T16:01:33;23.27;;;14.07;;
7821;SDS011;3956;50.558;9.678;2022-11-20T16:04:07;21.67;;;13.87;;
7821;SDS011;3956;50.558;9.678;2022-11-20T16:06:46;24.07;;;14.10;;
7821;SDS011;3956;50.558;9.678;2022-11-20T16:09:16;22.40;;;14.37;;
7821;SDS011;3956;50.558;9.678;2022-11-20T16:11:48;22.20;;;13.13;;
7821;SDS011;3956;50.558;9.678;2022-11-20T16:14:21;22.87;;;14.50;;
7821;SDS011;3956;50.558;9.678;2022-11-20T16:17:14;22.77;;;14.37;;
7821;SDS011;3956;50.558;9.678;2022-11-20T16:20:09;23.37;;;14.13;;
7821;SDS011;3956;50.558;9.678;2022-11-20T16:22:41;19.43;;;12.90;;
7821;SDS011;3956;50.558;9.678;2022-11-20T16:25:12;19.93;;;13.03;;
7821;SDS011;3956;50.558;9.678;2022-11-20T16:27:41;23.00;;;14.27;;